Airport View

Enter AWOS ICAO identifier for current METAR.

ex. KFNL

PADL 250056Z 18012KT 10SM SCT035 09/04 A2959

25 May 2020 01:20

Frequency: 125.0

Phone: 907-842-2137

Other Area AWOS: PFCL - PAMB - PANW - PFWS

TAF AMD PADL 250006Z 2500/2524 18010G18KT P6SM -SHRA BKN050 FM250400 13006KT P6SM SCT015 OVC050